Time;durP1;ratioP1;P1;durP2;ratioP2;P2;SDS_P1;SDS_P2;PMS_P1;PMS_P2;Temp;Humidity;BMP_temperature;BMP_pressure;BME280_temperature;BME280_humidity;BME280_pressure;Samples;Min_cycle;Max_cycle;Signal;HPM_P1;HPM_P2
2021/10/19 00:00:11;;;;;;;29.43;14.93;;;8.40;97.70;;;;;;5034086;28;20195;-75
2021/10/19 00:02:37;;;;;;;27.23;15.13;;;8.40;97.90;;;;;;5038914;28;20201;-75
2021/10/19 00:05:04;;;;;;;28.23;14.50;;;8.30;98.00;;;;;;5037292;28;20815;-74
2021/10/19 00:07:30;;;;;;;33.90;16.50;;;8.40;98.10;;;;;;5035566;28;20253;-73
2021/10/19 00:09:56;;;;;;;25.80;15.80;;;8.30;98.10;;;;;;5041533;28;20412;-76
2021/10/19 00:12:21;;;;;;;35.17;15.83;;;8.30;98.20;;;;;;5040632;28;20627;-75
2021/10/19 00:14:47;;;;;;;29.20;14.70;;;8.40;98.30;;;;;;5034691;28;20416;-75
2021/10/19 00:17:13;;;;;;;31.47;16.20;;;8.40;98.10;;;;;;5029542;28;20591;-75
2021/10/19 00:19:39;;;;;;;28.10;15.03;;;8.40;98.10;;;;;;5030760;28;20181;-75
2021/10/19 00:22:05;;;;;;;32.47;15.50;;;8.50;98.10;;;;;;5029674;28;20294;-74
2021/10/19 00:24:31;;;;;;;30.23;15.53;;;8.50;98.00;;;;;;5029609;28;20460;-75
2021/10/19 00:26:57;;;;;;;28.90;15.40;;;8.50;98.00;;;;;;5035337;28;20566;-73
2021/10/19 00:29:22;;;;;;;22.80;13.77;;;8.50;97.90;;;;;;5035327;28;20427;-74
2021/10/19 00:31:50;;;;;;;30.03;14.20;;;8.50;97.80;;;;;;5033446;28;20444;-75
2021/10/19 00:34:16;;;;;;;26.77;15.10;;;8.50;97.80;;;;;;5032780;28;20231;-75
2021/10/19 00:36:41;;;;;;;26.57;13.97;;;8.40;97.70;;;;;;5030852;28;20420;-73
2021/10/19 00:39:08;;;;;;;32.50;14.63;;;8.40;97.90;;;;;;5031252;28;20443;-74
2021/10/19 00:41:33;;;;;;;29.97;16.87;;;8.40;98.00;;;;;;5034005;28;20945;-73
2021/10/19 00:43:59;;;;;;;32.60;16.10;;;8.40;97.90;;;;;;5032885;28;20427;-73
2021/10/19 00:46:26;;;;;;;29.40;15.00;;;8.40;98.00;;;;;;5032695;28;20174;-73
2021/10/19 00:48:52;;;;;;;31.17;15.50;;;8.40;98.10;;;;;;5031379;28;20428;-74
2021/10/19 00:51:18;;;;;;;27.43;14.80;;;8.40;98.10;;;;;;5027476;28;20452;-74
2021/10/19 00:53:45;;;;;;;26.03;13.73;;;8.40;98.00;;;;;;5030641;28;20424;-73
2021/10/19 00:56:12;;;;;;;25.97;13.80;;;8.40;97.90;;;;;;5032794;28;20424;-75
2021/10/19 00:58:39;;;;;;;23.27;13.03;;;8.40;97.90;;;;;;5033106;28;20422;-73
2021/10/19 01:01:05;;;;;;;30.53;15.10;;;8.50;97.80;;;;;;5032495;28;20444;-74
2021/10/19 01:03:31;;;;;;;23.00;14.10;;;8.50;97.60;;;;;;5032647;28;20876;-73
2021/10/19 01:06:00;;;;;;;22.17;12.93;;;8.40;97.50;;;;;;5032502;28;20558;-74
2021/10/19 01:08:26;;;;;;;24.43;12.87;;;8.40;97.50;;;;;;5032673;28;20296;-73
2021/10/19 01:10:52;;;;;;;23.10;12.33;;;8.50;97.50;;;;;;5032306;28;20980;-73
2021/10/19 01:13:18;;;;;;;24.87;12.33;;;8.50;97.30;;;;;;5032380;28;21102;-75
2021/10/19 01:15:45;;;;;;;30.13;14.60;;;8.50;97.10;;;;;;5032034;28;20423;-74
2021/10/19 01:18:13;;;;;;;27.03;13.80;;;8.50;97.20;;;;;;5032802;28;20185;-73
2021/10/19 01:20:38;;;;;;;21.13;12.70;;;8.40;97.20;;;;;;5030967;28;20495;-74
2021/10/19 01:23:05;;;;;;;23.43;14.20;;;8.50;97.20;;;;;;5032722;28;20976;-74
2021/10/19 01:25:32;;;;;;;19.50;11.73;;;8.40;97.20;;;;;;5032560;28;20460;-74
2021/10/19 01:28:09;;;;;;;22.53;12.30;;;8.50;97.40;;;;;;5031865;28;20424;-73
2021/10/19 01:30:42;;;;;;;20.77;12.37;;;8.50;97.40;;;;;;5032448;28;20438;-75
2021/10/19 01:33:08;;;;;;;21.23;12.47;;;8.60;97.30;;;;;;5032449;28;20518;-75
2021/10/19 01:35:43;;;;;;;21.47;11.67;;;8.60;97.20;;;;;;5031647;28;20434;-74
2021/10/19 01:38:18;;;;;;;24.47;12.53;;;8.60;97.10;;;;;;5032043;28;20921;-72
2021/10/19 01:40:44;;;;;;;20.17;12.33;;;8.60;97.00;;;;;;5032230;28;20514;-73
2021/10/19 01:43:15;;;;;;;22.50;12.70;;;8.70;96.90;;;;;;5032229;28;20444;-72
2021/10/19 01:45:41;;;;;;;26.70;12.90;;;8.70;96.80;;;;;;5031586;28;20478;-74
2021/10/19 01:48:08;;;;;;;20.80;11.43;;;8.70;96.70;;;;;;5030564;28;20424;-74
2021/10/19 01:50:34;;;;;;;18.83;11.93;;;8.70;96.70;;;;;;5029981;28;20489;-75
2021/10/19 01:53:00;;;;;;;22.53;11.67;;;8.80;96.70;;;;;;5031756;28;20457;-73
2021/10/19 01:55:26;;;;;;;20.80;12.20;;;8.80;96.60;;;;;;5030002;28;20412;-76
2021/10/19 01:57:52;;;;;;;23.00;12.97;;;8.80;96.60;;;;;;5031818;28;20424;-75
2021/10/19 02:00:18;;;;;;;28.03;15.10;;;8.80;96.50;;;;;;5031905;28;21151;-73
2021/10/19 02:02:44;;;;;;;27.80;14.63;;;8.80;96.40;;;;;;5031218;28;20208;-75
2021/10/19 02:05:12;;;;;;;30.60;14.80;;;8.80;96.40;;;;;;5030661;28;20207;-73
2021/10/19 02:07:38;;;;;;;29.07;14.13;;;8.80;96.30;;;;;;5031492;28;21114;-73
2021/10/19 02:10:06;;;;;;;29.10;14.57;;;8.90;96.00;;;;;;5031422;28;20473;-75
2021/10/19 02:12:32;;;;;;;32.87;15.70;;;8.90;95.90;;;;;;5031134;28;20448;-73
2021/10/19 02:14:57;;;;;;;28.17;15.10;;;9.00;95.70;;;;;;5031120;28;20424;-74
2021/10/19 02:17:23;;;;;;;27.00;14.63;;;9.00;95.40;;;;;;5031117;28;20493;-75
2021/10/19 02:19:49;;;;;;;27.93;15.07;;;8.90;95.50;;;;;;5030012;28;20186;-73
2021/10/19 02:22:14;;;;;;;27.27;14.87;;;8.90;95.50;;;;;;5030838;28;20618;-74
2021/10/19 02:24:40;;;;;;;34.03;15.40;;;8.90;95.60;;;;;;5031153;28;20209;-74
2021/10/19 02:27:06;;;;;;;26.07;15.50;;;9.00;95.70;;;;;;5029584;28;20189;-74
2021/10/19 02:29:32;;;;;;;26.23;15.10;;;9.00;95.50;;;;;;5031285;28;20580;-75
2021/10/19 02:31:58;;;;;;;26.27;13.80;;;9.00;95.50;;;;;;5030700;28;20563;-73
2021/10/19 02:34:24;;;;;;;26.77;14.77;;;9.00;95.50;;;;;;5030691;28;20435;-75
2021/10/19 02:36:50;;;;;;;28.20;14.37;;;9.10;95.20;;;;;;5030598;28;20236;-75
2021/10/19 02:39:16;;;;;;;24.80;14.37;;;9.10;94.90;;;;;;5030977;28;20463;-75
2021/10/19 02:41:42;;;;;;;24.50;13.10;;;9.10;95.10;;;;;;5029177;28;20957;-74
2021/10/19 02:44:08;;;;;;;32.50;14.07;;;9.10;95.10;;;;;;5027621;28;20426;-75
2021/10/19 02:46:34;;;;;;;29.10;14.43;;;9.10;95.10;;;;;;5030736;28;20181;-76
2021/10/19 02:49:02;;;;;;;26.30;14.40;;;9.10;94.90;;;;;;5031604;28;20192;-75
2021/10/19 02:51:28;;;;;;;24.60;13.73;;;9.00;94.80;;;;;;5037763;28;20448;-74
2021/10/19 02:53:54;;;;;;;24.00;13.30;;;9.00;94.90;;;;;;5035089;28;20965;-74
2021/10/19 02:56:20;;;;;;;24.77;14.53;;;9.00;95.00;;;;;;5036958;28;20527;-74
2021/10/19 02:58:47;;;;;;;23.23;13.10;;;9.00;95.00;;;;;;5031469;28;20784;-72
2021/10/19 03:01:13;;;;;;;22.80;13.40;;;9.10;95.10;;;;;;5030140;28;21000;-74
2021/10/19 03:03:38;;;;;;;27.07;13.03;;;9.10;95.20;;;;;;5029369;28;20430;-74
2021/10/19 03:06:04;;;;;;;22.70;13.57;;;9.20;95.00;;;;;;5029916;28;20475;-73
2021/10/19 03:08:30;;;;;;;23.87;13.50;;;9.20;94.80;;;;;;5030897;28;20179;-76
2021/10/19 03:10:56;;;;;;;28.10;13.80;;;9.20;94.80;;;;;;5030435;28;20264;-74
2021/10/19 03:13:22;;;;;;;30.33;13.23;;;9.20;94.80;;;;;;5030270;28;20687;-74
2021/10/19 03:15:47;;;;;;;29.10;14.70;;;9.20;94.80;;;;;;5029555;28;20189;-74
2021/10/19 03:18:13;;;;;;;28.97;14.43;;;9.20;94.90;;;;;;5029863;28;20930;-74
2021/10/19 03:20:39;;;;;;;27.83;13.77;;;9.20;94.90;;;;;;5030027;28;20270;-73
2021/10/19 03:23:05;;;;;;;24.93;13.90;;;9.30;94.80;;;;;;5030608;28;20500;-75
2021/10/19 03:25:31;;;;;;;25.50;14.93;;;9.30;94.70;;;;;;5029807;28;20710;-73
2021/10/19 03:27:56;;;;;;;26.10;14.00;;;9.30;94.70;;;;;;5030468;28;20189;-74
2021/10/19 03:30:22;;;;;;;23.93;13.63;;;9.30;94.60;;;;;;5029133;28;20200;-74
2021/10/19 03:32:48;;;;;;;31.70;12.77;;;9.30;94.70;;;;;;5030048;28;20213;-73
2021/10/19 03:35:14;;;;;;;27.23;14.67;;;9.40;94.80;;;;;;5031135;28;20952;-74
2021/10/19 03:37:40;;;;;;;24.60;13.23;;;9.40;94.60;;;;;;5035725;28;20943;-73
2021/10/19 03:40:06;;;;;;;19.50;12.63;;;9.40;94.60;;;;;;5032545;28;20189;-75
2021/10/19 03:42:32;;;;;;;22.00;13.03;;;9.40;94.60;;;;;;5025702;28;20251;-76
2021/10/19 03:44:58;;;;;;;25.20;12.97;;;9.50;94.60;;;;;;5028579;28;20506;-74
2021/10/19 03:47:24;;;;;;;21.87;13.30;;;9.50;94.70;;;;;;5031516;28;20190;-74
2021/10/19 03:49:50;;;;;;;24.90;13.40;;;9.50;94.50;;;;;;5029141;28;20670;-73
2021/10/19 03:52:16;;;;;;;23.43;12.97;;;9.50;94.50;;;;;;5030101;28;20212;-73
2021/10/19 03:54:42;;;;;;;20.27;11.53;;;9.60;94.60;;;;;;5032017;28;20431;-74
2021/10/19 03:57:07;;;;;;;20.67;11.70;;;9.60;94.50;;;;;;5036702;28;20224;-74
2021/10/19 03:59:34;;;;;;;22.03;11.90;;;9.70;94.40;;;;;;5036828;28;20185;-74
2021/10/19 04:02:00;;;;;;;23.83;12.93;;;9.70;94.40;;;;;;5031804;28;20209;-73
2021/10/19 04:04:26;;;;;;;23.57;12.80;;;9.70;94.20;;;;;;5036775;28;21004;-73
2021/10/19 04:06:52;;;;;;;21.40;11.57;;;9.80;94.10;;;;;;5038859;28;20427;-75
2021/10/19 04:09:18;;;;;;;23.17;12.93;;;9.80;94.00;;;;;;5028978;28;20242;-74
2021/10/19 04:11:44;;;;;;;23.33;13.70;;;9.80;94.00;;;;;;5029424;28;20440;-74
2021/10/19 04:14:09;;;;;;;26.00;13.80;;;9.80;94.00;;;;;;5028316;28;20189;-72
2021/10/19 04:16:35;;;;;;;19.63;12.10;;;9.80;93.90;;;;;;5029260;28;20180;-75
2021/10/19 04:19:02;;;;;;;19.70;12.37;;;9.80;93.70;;;;;;5029117;28;20322;-73
2021/10/19 04:21:27;;;;;;;24.13;12.40;;;9.80;93.60;;;;;;5029204;28;20651;-74
2021/10/19 04:23:53;;;;;;;23.17;12.23;;;9.80;93.70;;;;;;5029295;28;20459;-73
2021/10/19 04:26:19;;;;;;;25.13;13.20;;;9.80;93.80;;;;;;5029165;28;20224;-74
2021/10/19 04:28:45;;;;;;;22.50;12.43;;;9.80;94.00;;;;;;5030070;28;20188;-74
2021/10/19 04:31:13;;;;;;;20.00;11.03;;;9.80;94.10;;;;;;5033256;28;20923;-73
2021/10/19 04:33:39;;;;;;;21.43;11.63;;;9.90;94.10;;;;;;5032948;28;20477;-73
2021/10/19 04:36:05;;;;;;;23.70;12.60;;;9.90;94.10;;;;;;5032932;28;21063;-73
2021/10/19 04:38:32;;;;;;;23.33;13.03;;;9.90;93.90;;;;;;5033033;28;20443;-73
2021/10/19 04:40:58;;;;;;;21.93;12.80;;;9.90;93.80;;;;;;5032831;28;20489;-75
2021/10/19 04:43:24;;;;;;;23.27;13.63;;;9.90;93.80;;;;;;5033269;28;21342;-76
2021/10/19 04:45:53;;;;;;;26.90;13.30;;;9.90;93.80;;;;;;5033157;28;20813;-74
2021/10/19 04:48:20;;;;;;;26.13;14.13;;;9.90;93.70;;;;;;5033399;28;20424;-74
2021/10/19 04:50:46;;;;;;;24.57;13.40;;;9.90;93.80;;;;;;5038601;28;20428;-77
2021/10/19 04:53:11;;;;;;;18.97;12.70;;;9.90;93.80;;;;;;5037409;28;20427;-76
2021/10/19 04:55:37;;;;;;;23.60;12.60;;;10.00;93.60;;;;;;5035086;28;20985;-75
2021/10/19 04:58:03;;;;;;;20.10;12.70;;;10.00;93.40;;;;;;5034386;28;21063;-78
2021/10/19 05:00:29;;;;;;;24.50;12.87;;;10.00;93.30;;;;;;5026191;28;20284;-77
2021/10/19 05:02:55;;;;;;;24.30;13.27;;;9.90;93.40;;;;;;5034560;28;20447;-77
2021/10/19 05:05:21;;;;;;;22.23;11.83;;;9.90;93.60;;;;;;5032706;28;20262;-77
2021/10/19 05:07:47;;;;;;;26.67;15.43;;;10.00;93.30;;;;;;5034122;28;20432;-76
2021/10/19 05:10:14;;;;;;;21.50;14.13;;;10.00;93.20;;;;;;5033258;28;20196;-76
2021/10/19 05:12:40;;;;;;;21.90;12.00;;;9.90;93.10;;;;;;5033384;28;20619;-72
2021/10/19 05:15:06;;;;;;;24.50;12.23;;;10.00;93.30;;;;;;5031989;28;20455;-75
2021/10/19 05:17:32;;;;;;;28.23;14.33;;;10.00;93.40;;;;;;5034575;28;20185;-73
2021/10/19 05:19:58;;;;;;;23.90;13.10;;;10.00;93.50;;;;;;5045965;28;20467;-75
2021/10/19 05:22:25;;;;;;;22.77;12.97;;;10.00;93.40;;;;;;5045981;28;20217;-76
2021/10/19 05:24:51;;;;;;;28.43;12.40;;;10.00;93.50;;;;;;5044817;28;20471;-73
2021/10/19 05:27:16;;;;;;;22.67;13.10;;;10.10;93.20;;;;;;5041188;28;20426;-73
2021/10/19 05:29:42;;;;;;;23.87;12.27;;;10.10;93.40;;;;;;5033559;28;20800;-74
2021/10/19 05:32:08;;;;;;;21.33;12.10;;;10.10;93.50;;;;;;5032055;28;20304;-73
2021/10/19 05:34:34;;;;;;;21.93;12.80;;;10.10;93.70;;;;;;5030709;28;20193;-74
2021/10/19 05:36:59;;;;;;;25.73;13.37;;;10.20;93.70;;;;;;5032163;28;20186;-75
2021/10/19 05:39:25;;;;;;;27.57;14.30;;;10.20;93.70;;;;;;5031493;28;20205;-74
2021/10/19 05:41:51;;;;;;;21.90;12.37;;;10.20;93.70;;;;;;5030819;28;20210;-74
2021/10/19 05:44:16;;;;;;;22.43;13.53;;;10.30;93.90;;;;;;5035559;28;20181;-74
2021/10/19 05:46:42;;;;;;;22.80;13.03;;;10.30;93.90;;;;;;5037388;28;20196;-74
2021/10/19 05:49:08;;;;;;;24.40;13.20;;;10.40;94.00;;;;;;5037458;28;20572;-74
2021/10/19 05:51:34;;;;;;;26.00;13.63;;;10.40;94.00;;;;;;5033910;28;20274;-73
2021/10/19 05:53:59;;;;;;;21.13;13.40;;;10.40;94.10;;;;;;5031323;28;20212;-73
2021/10/19 05:56:25;;;;;;;26.03;13.53;;;10.50;94.00;;;;;;5035142;28;20219;-73
2021/10/19 05:58:51;;;;;;;26.00;13.40;;;10.50;94.00;;;;;;5040851;28;20188;-73
2021/10/19 06:01:17;;;;;;;24.03;12.77;;;10.60;93.70;;;;;;5036640;28;20219;-74
2021/10/19 06:03:42;;;;;;;23.53;13.30;;;10.60;93.70;;;;;;5032789;28;20243;-73
2021/10/19 06:06:11;;;;;;;28.47;12.57;;;10.60;93.40;;;;;;5032454;28;20212;-74
2021/10/19 06:08:37;;;;;;;20.73;12.47;;;10.70;93.00;;;;;;5033375;28;20272;-74
2021/10/19 06:11:03;;;;;;;22.33;14.40;;;10.70;93.00;;;;;;5032376;28;21418;-74
2021/10/19 06:13:29;;;;;;;22.30;12.80;;;10.70;93.20;;;;;;5025412;28;20170;-73
2021/10/19 06:15:55;;;;;;;28.17;13.97;;;10.70;93.10;;;;;;5033497;28;20482;-74
2021/10/19 06:18:21;;;;;;;24.73;13.20;;;10.70;93.20;;;;;;5030744;28;20424;-73
2021/10/19 06:20:49;;;;;;;21.40;12.30;;;10.70;93.20;;;;;;5031437;28;20196;-74
2021/10/19 06:23:16;;;;;;;29.83;13.80;;;10.70;93.00;;;;;;5031926;28;20423;-74
2021/10/19 06:25:41;;;;;;;30.87;13.00;;;10.80;92.90;;;;;;5031305;28;20467;-74
2021/10/19 06:28:08;;;;;;;27.23;13.50;;;10.80;93.00;;;;;;5032661;28;20503;-74
2021/10/19 06:30:34;;;;;;;25.30;13.97;;;10.80;93.00;;;;;;5031805;28;20580;-73
2021/10/19 06:33:00;;;;;;;29.57;13.00;;;10.90;92.90;;;;;;5031714;28;20946;-74
2021/10/19 06:35:26;;;;;;;35.67;15.50;;;10.90;92.90;;;;;;5031108;28;20426;-75
2021/10/19 06:37:51;;;;;;;33.83;15.47;;;11.00;92.90;;;;;;5031460;28;20189;-73
2021/10/19 06:40:17;;;;;;;24.30;13.20;;;11.00;93.00;;;;;;5030872;28;20466;-73
2021/10/19 06:42:45;;;;;;;30.83;14.33;;;11.10;93.00;;;;;;5028351;28;20589;-74
2021/10/19 06:45:11;;;;;;;20.50;12.37;;;11.10;93.00;;;;;;5032180;28;20250;-72
2021/10/19 06:47:37;;;;;;;25.07;14.10;;;11.20;92.90;;;;;;5030302;28;20423;-73
2021/10/19 06:50:06;;;;;;;41.77;17.43;;;11.20;92.80;;;;;;5029722;28;20458;-74
2021/10/19 06:52:32;;;;;;;30.60;14.53;;;11.20;92.60;;;;;;5030370;28;20459;-75
2021/10/19 06:54:58;;;;;;;22.73;13.77;;;11.20;92.70;;;;;;5030723;28;20436;-75
2021/10/19 06:57:24;;;;;;;25.50;12.87;;;11.20;92.80;;;;;;5031576;28;20549;-73
2021/10/19 06:59:50;;;;;;;35.77;15.20;;;11.30;92.70;;;;;;5031389;28;20468;-73
2021/10/19 07:02:16;;;;;;;25.83;13.50;;;11.30;92.50;;;;;;5031774;28;20447;-73
2021/10/19 07:04:41;;;;;;;22.23;12.47;;;11.40;92.20;;;;;;5034830;28;20283;-73
2021/10/19 07:07:07;;;;;;;26.47;13.03;;;11.40;91.80;;;;;;5030747;28;20512;-72
2021/10/19 07:09:33;;;;;;;25.00;13.50;;;11.20;91.30;;;;;;5029713;28;20196;-73
2021/10/19 07:12:01;;;;;;;25.37;13.53;;;11.20;91.50;;;;;;5030705;28;20263;-73
2021/10/19 07:14:26;;;;;;;24.10;12.57;;;11.20;91.70;;;;;;5031452;28;20207;-74
2021/10/19 07:16:54;;;;;;;34.37;13.50;;;11.20;91.70;;;;;;5031574;28;20507;-75
2021/10/19 07:19:20;;;;;;;28.43;12.90;;;11.30;91.70;;;;;;5030933;28;20490;-76
2021/10/19 07:21:46;;;;;;;21.17;12.43;;;11.40;91.90;;;;;;5032851;28;20440;-72
2021/10/19 07:24:11;;;;;;;33.63;13.57;;;11.40;91.80;;;;;;5033896;28;20535;-73
2021/10/19 07:26:37;;;;;;;21.97;12.40;;;11.40;91.70;;;;;;5037878;28;20177;-72
2021/10/19 07:29:03;;;;;;;22.10;12.20;;;11.50;91.70;;;;;;5037838;28;20940;-73
2021/10/19 07:31:29;;;;;;;22.50;12.57;;;11.50;91.50;;;;;;5027197;28;20454;-74
2021/10/19 07:33:55;;;;;;;34.60;19.33;;;11.60;91.30;;;;;;5032797;28;20694;-74
2021/10/19 07:36:20;;;;;;;23.40;13.60;;;11.60;91.10;;;;;;5037502;28;20246;-74
2021/10/19 07:38:48;;;;;;;28.30;12.83;;;11.60;91.10;;;;;;5034616;28;20502;-74
2021/10/19 07:41:14;;;;;;;26.40;12.77;;;11.60;90.90;;;;;;5033974;28;20700;-74
2021/10/19 07:43:40;;;;;;;20.90;12.60;;;11.60;90.80;;;;;;5035819;28;20505;-74
2021/10/19 07:46:06;;;;;;;26.23;14.20;;;11.60;91.00;;;;;;5035642;28;20558;-74
2021/10/19 07:48:32;;;;;;;23.90;12.87;;;11.70;90.60;;;;;;5035228;28;20448;-74
2021/10/19 07:50:57;;;;;;;21.93;12.77;;;11.70;90.30;;;;;;5034334;28;20239;-73
2021/10/19 07:53:23;;;;;;;26.90;12.83;;;11.80;90.50;;;;;;5036186;28;20910;-74
2021/10/19 07:55:49;;;;;;;23.90;12.80;;;11.90;90.30;;;;;;5033520;28;20266;-73
2021/10/19 07:58:15;;;;;;;21.87;11.43;;;12.00;90.20;;;;;;5031053;28;20640;-73
2021/10/19 08:00:40;;;;;;;19.37;12.80;;;12.10;90.10;;;;;;5030400;28;20216;-74
2021/10/19 08:03:06;;;;;;;24.97;13.10;;;12.20;89.50;;;;;;5030738;28;20220;-74
2021/10/19 08:05:33;;;;;;;22.83;13.10;;;12.10;89.00;;;;;;5035149;28;20270;-74
2021/10/19 08:08:07;;;;;;;22.80;12.30;;;12.10;89.70;;;;;;5036307;28;20609;-74
2021/10/19 08:10:34;;;;;;;35.30;14.43;;;12.00;90.00;;;;;;5035781;28;20431;-73
2021/10/19 08:12:59;;;;;;;19.40;12.27;;;11.80;89.70;;;;;;5036063;28;20450;-73
2021/10/19 08:15:25;;;;;;;22.03;11.73;;;11.90;90.10;;;;;;5037346;28;20515;-73
2021/10/19 08:17:51;;;;;;;24.70;11.97;;;12.00;90.30;;;;;;5039073;28;20185;-75
2021/10/19 08:20:17;;;;;;;20.53;10.73;;;12.20;90.40;;;;;;5035943;28;20255;-74
2021/10/19 08:22:43;;;;;;;21.10;12.47;;;12.30;90.40;;;;;;5035092;28;20217;-74
2021/10/19 08:25:10;;;;;;;24.00;11.63;;;12.30;90.30;;;;;;5033999;28;20490;-74
2021/10/19 08:27:38;;;;;;;25.53;12.03;;;12.50;89.90;;;;;;5034624;28;20450;-74
2021/10/19 08:30:05;;;;;;;18.77;12.07;;;12.60;89.00;;;;;;5034640;28;21149;-75
2021/10/19 08:32:31;;;;;;;24.93;13.70;;;12.60;88.60;;;;;;5036726;28;20811;-74
2021/10/19 08:34:57;;;;;;;21.37;12.57;;;12.70;87.40;;;;;;5037258;28;20907;-74
2021/10/19 08:37:23;;;;;;;25.70;12.50;;;12.80;87.30;;;;;;5034361;28;20450;-73
2021/10/19 08:39:49;;;;;;;22.97;11.93;;;12.90;87.40;;;;;;5034302;28;20942;-74
2021/10/19 08:42:15;;;;;;;18.53;11.87;;;13.00;87.10;;;;;;5029194;28;20210;-75
2021/10/19 08:44:41;;;;;;;19.60;11.77;;;13.10;85.90;;;;;;5033743;28;20903;-74
2021/10/19 08:47:08;;;;;;;22.53;12.60;;;13.10;85.90;;;;;;5032594;28;20185;-74
2021/10/19 08:49:34;;;;;;;34.13;13.70;;;13.10;86.30;;;;;;5034014;28;20966;-74
2021/10/19 08:52:00;;;;;;;23.60;13.20;;;13.20;87.10;;;;;;5033306;28;20543;-74
2021/10/19 08:54:25;;;;;;;20.83;12.37;;;13.10;88.00;;;;;;5033055;28;20835;-74
2021/10/19 08:56:52;;;;;;;27.83;12.77;;;13.10;89.00;;;;;;5033734;28;20514;-75
2021/10/19 08:59:22;;;;;;;24.20;13.83;;;13.00;89.50;;;;;;5033450;28;20189;-74
2021/10/19 09:01:48;;;;;;;26.97;15.27;;;13.00;90.40;;;;;;5032870;28;20482;-74
2021/10/19 09:04:14;;;;;;;28.93;13.00;;;13.00;91.00;;;;;;5033164;28;20446;-74
2021/10/19 09:06:41;;;;;;;24.50;14.10;;;12.90;91.40;;;;;;5039302;28;20507;-74
2021/10/19 09:09:13;;;;;;;27.80;15.30;;;12.90;92.20;;;;;;5034633;28;20239;-74
2021/10/19 09:11:41;;;;;;;30.63;14.63;;;12.80;92.00;;;;;;5033355;28;20539;-74
2021/10/19 09:14:07;;;;;;;25.27;13.40;;;12.60;92.20;;;;;;5033060;28;20427;-73
2021/10/19 09:16:42;;;;;;;32.40;15.30;;;12.60;92.60;;;;;;5031645;28;20471;-75
2021/10/19 09:19:09;;;;;;;26.37;14.00;;;12.60;92.30;;;;;;5034515;28;20518;-74
2021/10/19 09:21:35;;;;;;;26.27;14.20;;;12.60;92.20;;;;;;5034342;28;20451;-74
2021/10/19 09:24:27;;;;;;;21.53;12.37;;;12.80;92.60;;;;;;5034510;28;20459;-75
2021/10/19 09:27:10;;;;;;;32.03;14.27;;;12.90;92.70;;;;;;5035123;28;20511;-75
2021/10/19 09:29:40;;;;;;;23.57;13.10;;;12.90;92.70;;;;;;5034321;28;20450;-74
2021/10/19 09:32:07;;;;;;;26.97;12.90;;;12.90;92.30;;;;;;5033326;28;20960;-73
2021/10/19 09:34:34;;;;;;;25.63;14.40;;;13.00;92.40;;;;;;5033269;28;20430;-75
2021/10/19 09:37:01;;;;;;;24.73;14.50;;;13.10;92.20;;;;;;5031152;28;20435;-73
2021/10/19 09:39:31;;;;;;;22.60;12.53;;;13.20;92.30;;;;;;5031749;28;20922;-74
2021/10/19 09:41:57;;;;;;;16.57;6.87;;;13.20;92.10;;;;;;5028653;28;20471;-74
2021/10/19 09:44:23;;;;;;;23.03;6.90;;;13.30;90.90;;;;;;5031600;28;20432;-75
2021/10/19 09:46:50;;;;;;;12.63;6.20;;;13.40;90.60;;;;;;5033818;28;20656;-74
2021/10/19 09:49:16;;;;;;;19.17;7.93;;;13.50;90.80;;;;;;5044710;28;20419;-74
2021/10/19 09:51:43;;;;;;;20.60;6.23;;;13.60;91.30;;;;;;5043081;28;20590;-73
2021/10/19 09:54:11;;;;;;;9.33;4.80;;;13.50;91.10;;;;;;5036585;28;20428;-74
2021/10/19 09:56:39;;;;;;;11.40;4.87;;;13.60;91.40;;;;;;5033130;28;20443;-75
2021/10/19 09:59:06;;;;;;;12.63;5.40;;;13.80;90.20;;;;;;5033347;28;20420;-73
2021/10/19 10:01:33;;;;;;;11.67;5.00;;;13.90;89.60;;;;;;5031944;28;20962;-73
2021/10/19 10:04:00;;;;;;;10.53;4.27;;;14.10;89.00;;;;;;5032638;28;20500;-74
2021/10/19 10:06:27;;;;;;;9.60;4.80;;;14.20;88.70;;;;;;5036923;28;20466;-75
2021/10/19 10:08:53;;;;;;;11.17;6.27;;;14.20;88.40;;;;;;5036119;28;20454;-74
2021/10/19 10:11:21;;;;;;;10.77;5.37;;;14.30;87.80;;;;;;5032528;28;20470;-74
2021/10/19 10:14:03;;;;;;;12.83;4.60;;;14.30;87.60;;;;;;5030973;28;20428;-74
2021/10/19 10:16:41;;;;;;;5.27;4.03;;;14.30;87.70;;;;;;5023077;28;20420;-73
2021/10/19 10:19:20;;;;;;;10.20;4.63;;;14.30;88.30;;;;;;5030934;28;20455;-74
2021/10/19 10:21:49;;;;;;;6.83;4.17;;;14.40;88.70;;;;;;5032324;28;20534;-75
2021/10/19 10:24:26;;;;;;;7.67;4.23;;;14.50;88.70;;;;;;5031773;28;20930;-75
2021/10/19 10:27:08;;;;;;;7.00;3.60;;;14.60;88.40;;;;;;5030742;28;20478;-73
2021/10/19 10:29:40;;;;;;;8.37;3.83;;;14.70;88.10;;;;;;5032701;28;20436;-73
2021/10/19 10:32:06;;;;;;;7.73;4.10;;;14.70;88.10;;;;;;5032451;28;20451;-73
2021/10/19 10:34:33;;;;;;;6.00;4.03;;;14.80;87.80;;;;;;5031645;28;20428;-74
2021/10/19 10:37:11;;;;;;;7.33;3.83;;;14.90;87.60;;;;;;5032960;28;20544;-74
2021/10/19 10:39:45;;;;;;;6.67;4.27;;;14.90;87.30;;;;;;5033602;28;20552;-73
2021/10/19 10:42:11;;;;;;;8.40;4.20;;;15.00;87.70;;;;;;5023790;28;20459;-73
2021/10/19 10:44:40;;;;;;;8.37;4.27;;;15.10;87.70;;;;;;5032169;28;20491;-74
2021/10/19 10:47:08;;;;;;;31.97;7.03;;;15.20;87.60;;;;;;5032480;28;20460;-74
2021/10/19 10:49:34;;;;;;;6.40;4.27;;;15.20;87.10;;;;;;5029868;28;20439;-74
2021/10/19 10:52:02;;;;;;;6.60;3.97;;;15.10;86.30;;;;;;5030781;28;20444;-74
2021/10/19 10:54:29;;;;;;;14.00;4.57;;;15.10;86.90;;;;;;5031397;28;20918;-74
2021/10/19 10:56:55;;;;;;;6.40;4.00;;;15.00;87.00;;;;;;5031988;28;21203;-74
2021/10/19 10:59:25;;;;;;;6.20;3.60;;;14.70;88.00;;;;;;5031578;28;20430;-74
2021/10/19 11:01:51;;;;;;;11.70;4.40;;;14.60;89.20;;;;;;5031050;28;20471;-75
2021/10/19 11:04:17;;;;;;;8.50;3.40;;;14.70;89.50;;;;;;5029918;28;20943;-73
2021/10/19 11:06:43;;;;;;;9.13;3.60;;;14.80;89.60;;;;;;5035645;28;20201;-75
2021/10/19 11:09:12;;;;;;;6.80;3.77;;;14.80;90.00;;;;;;5032967;28;20192;-75
2021/10/19 11:11:40;;;;;;;6.17;3.90;;;14.80;89.60;;;;;;5032608;28;20910;-74
2021/10/19 11:14:15;;;;;;;6.77;3.70;;;14.70;89.30;;;;;;5031944;28;20432;-73
2021/10/19 11:16:49;;;;;;;5.60;3.90;;;14.70;89.50;;;;;;5030607;28;20466;-73
2021/10/19 11:19:15;;;;;;;6.37;4.20;;;14.80;89.60;;;;;;5034561;28;20451;-74
2021/10/19 11:21:42;;;;;;;5.23;3.97;;;14.80;88.90;;;;;;5033948;28;20443;-75
2021/10/19 11:24:08;;;;;;;5.30;3.83;;;14.90;88.90;;;;;;5032305;28;20189;-75
2021/10/19 11:26:34;;;;;;;6.30;3.93;;;15.10;87.70;;;;;;5031235;28;20514;-74
2021/10/19 11:29:01;;;;;;;6.67;3.90;;;15.20;87.00;;;;;;5032839;28;20440;-74
2021/10/19 11:31:28;;;;;;;6.70;3.93;;;15.20;85.60;;;;;;5035116;28;20454;-75
2021/10/19 11:33:55;;;;;;;5.13;3.70;;;15.20;85.90;;;;;;5035261;28;20424;-75
2021/10/19 11:36:21;;;;;;;7.53;4.20;;;15.20;85.90;;;;;;5037156;28;21006;-75
2021/10/19 11:38:49;;;;;;;5.40;3.80;;;15.30;86.20;;;;;;5036623;28;20964;-74
2021/10/19 11:41:23;;;;;;;4.67;3.57;;;15.40;85.20;;;;;;5035254;28;20448;-74
2021/10/19 11:43:54;;;;;;;5.43;3.60;;;15.30;84.10;;;;;;5046337;28;20486;-73
2021/10/19 11:46:23;;;;;;;6.83;3.57;;;15.40;84.00;;;;;;5045953;28;20502;-74
2021/10/19 11:48:51;;;;;;;3.90;3.13;;;15.30;83.40;;;;;;5044037;28;20415;-73
2021/10/19 11:51:20;;;;;;;9.13;4.13;;;15.30;84.10;;;;;;5037442;28;20443;-74
2021/10/19 11:53:47;;;;;;;7.97;3.60;;;15.40;83.80;;;;;;5029907;28;20428;-73
2021/10/19 11:56:14;;;;;;;8.23;4.50;;;15.50;83.70;;;;;;5031076;28;20474;-75
2021/10/19 11:58:55;;;;;;;6.97;3.93;;;15.60;83.80;;;;;;5031457;28;20432;-73
2021/10/19 12:01:22;;;;;;;16.63;4.40;;;15.70;83.30;;;;;;5031171;28;20448;-74
2021/10/19 12:04:02;;;;;;;6.30;3.60;;;15.70;83.30;;;;;;5031470;28;20431;-74
2021/10/19 12:06:32;;;;;;;10.33;4.20;;;15.60;83.80;;;;;;5031500;28;20472;-74
2021/10/19 12:09:12;;;;;;;6.33;3.97;;;15.60;84.00;;;;;;5030468;28;20429;-74
2021/10/19 12:11:38;;;;;;;5.13;3.07;;;15.60;84.00;;;;;;5024110;28;20443;-73
2021/10/19 12:14:07;;;;;;;9.80;3.93;;;15.70;84.40;;;;;;5029787;28;20962;-74
2021/10/19 12:16:33;;;;;;;7.20;3.60;;;15.70;84.00;;;;;;5031480;28;20767;-73
2021/10/19 12:19:01;;;;;;;19.40;5.17;;;15.70;83.70;;;;;;5031686;28;20463;-74
2021/10/19 12:21:29;;;;;;;14.83;4.23;;;15.70;84.00;;;;;;5031371;28;21001;-74
2021/10/19 12:23:57;;;;;;;16.07;4.60;;;15.80;84.40;;;;;;5031892;28;20519;-74
2021/10/19 12:26:26;;;;;;;6.97;3.83;;;15.90;83.80;;;;;;5031962;28;20478;-75
2021/10/19 12:28:55;;;;;;;6.73;3.83;;;15.90;82.10;;;;;;5031003;28;20511;-74
2021/10/19 12:31:22;;;;;;;7.10;4.53;;;15.90;82.80;;;;;;5031076;28;20448;-74
2021/10/19 12:33:55;;;;;;;6.40;3.70;;;15.80;84.90;;;;;;5033525;28;20428;-75